Time;durP1;ratioP1;P1;durP2;ratioP2;P2;SDS_P1;SDS_P2;PMS_P1;PMS_P2;Temp;Humidity;BMP_temperature;BMP_pressure;BME280_temperature;BME280_humidity;BME280_pressure;Samples;Min_cycle;Max_cycle;Signal;HPM_P1;HPM_P2
2021/10/19 00:01:26;;;;;;;7.35;4.93;;;12.70;99.90;;;;;;5131355;27;20079;-86
2021/10/19 00:03:52;;;;;;;6.97;4.65;;;12.80;99.90;;;;;;5114611;27;20070;-86
2021/10/19 00:06:18;;;;;;;6.65;4.70;;;12.70;99.90;;;;;;5114319;27;20023;-86
2021/10/19 00:08:44;;;;;;;8.98;6.00;;;12.70;99.90;;;;;;5114519;27;20023;-86
2021/10/19 00:11:11;;;;;;;7.82;5.45;;;12.60;99.90;;;;;;5114385;27;20501;-87
2021/10/19 00:13:37;;;;;;;8.45;6.28;;;12.60;99.90;;;;;;5114161;27;20027;-86
2021/10/19 00:16:08;;;;;;;10.35;5.80;;;12.60;99.90;;;;;;5114024;27;20019;-85
2021/10/19 00:18:35;;;;;;;7.88;5.35;;;12.60;99.90;;;;;;5113939;27;20046;-87
2021/10/19 00:21:00;;;;;;;8.73;5.82;;;12.60;99.90;;;;;;5114357;27;20027;-87
2021/10/19 00:23:26;;;;;;;9.00;5.25;;;12.60;99.90;;;;;;5114336;27;20061;-86
2021/10/19 00:25:52;;;;;;;8.50;5.88;;;12.50;99.90;;;;;;5113917;27;20031;-86
2021/10/19 00:28:17;;;;;;;7.25;4.70;;;12.50;99.90;;;;;;5113567;27;20031;-87
2021/10/19 00:30:43;;;;;;;8.38;5.72;;;12.50;99.90;;;;;;5113814;27;20023;-86
2021/10/19 00:33:09;;;;;;;8.07;5.45;;;12.50;99.90;;;;;;5113969;27;20027;-86
2021/10/19 00:35:34;;;;;;;8.98;5.72;;;12.50;99.90;;;;;;5113741;27;20463;-86
2021/10/19 00:38:00;;;;;;;8.65;5.95;;;12.50;99.90;;;;;;5113443;27;20047;-86
2021/10/19 00:40:26;;;;;;;9.57;6.82;;;12.50;99.90;;;;;;5113854;27;20073;-87
2021/10/19 00:42:52;;;;;;;7.10;5.32;;;12.40;99.90;;;;;;5130557;27;20054;-86
2021/10/19 00:45:18;;;;;;;9.10;6.70;;;12.40;99.90;;;;;;5113496;27;20467;-84
2021/10/19 00:47:48;;;;;;;10.95;7.68;;;12.40;99.90;;;;;;5113075;27;20046;-86
2021/10/19 00:50:15;;;;;;;10.07;6.07;;;12.30;99.90;;;;;;5113475;27;20038;-87
2021/10/19 00:52:41;;;;;;;8.57;5.88;;;12.40;99.90;;;;;;5113282;27;20047;-86
2021/10/19 00:55:08;;;;;;;7.78;5.93;;;12.30;99.90;;;;;;5118306;28;20051;-87
2021/10/19 00:57:33;;;;;;;9.10;6.32;;;12.30;99.90;;;;;;5092801;28;20067;-87
2021/10/19 00:59:59;;;;;;;9.50;5.68;;;12.30;99.90;;;;;;5093121;28;20065;-86
2021/10/19 01:02:25;;;;;;;8.13;5.57;;;12.20;99.90;;;;;;5092929;28;20035;-86
2021/10/19 01:04:50;;;;;;;7.88;5.50;;;12.20;99.90;;;;;;5092867;28;20024;-86
2021/10/19 01:07:17;;;;;;;7.57;5.70;;;12.20;99.90;;;;;;5092592;28;20023;-87
2021/10/19 01:09:42;;;;;;;7.20;5.53;;;12.20;99.90;;;;;;5091793;28;20038;-87
2021/10/19 01:12:09;;;;;;;9.23;5.95;;;12.20;99.90;;;;;;5092598;28;20031;-86
2021/10/19 01:14:36;;;;;;;8.20;5.68;;;12.20;99.90;;;;;;5092609;28;20038;-87
2021/10/19 01:17:02;;;;;;;9.63;6.03;;;12.20;99.90;;;;;;5092578;28;20095;-87
2021/10/19 01:19:28;;;;;;;8.38;6.25;;;12.20;99.90;;;;;;5092689;28;20035;-86
2021/10/19 01:21:58;;;;;;;7.40;5.88;;;12.20;99.90;;;;;;5092469;28;20027;-87
2021/10/19 01:24:24;;;;;;;11.18;5.85;;;12.20;99.90;;;;;;5092533;28;20056;-87
2021/10/19 01:26:50;;;;;;;8.63;5.47;;;12.20;99.90;;;;;;5109284;28;20032;-87
2021/10/19 01:29:15;;;;;;;8.50;5.40;;;12.20;99.90;;;;;;5109265;28;20024;-87
2021/10/19 01:31:50;;;;;;;8.93;6.03;;;12.20;99.90;;;;;;5092241;28;20478;-86
2021/10/19 01:34:16;;;;;;;11.38;5.63;;;12.20;99.90;;;;;;5092176;28;20031;-87
2021/10/19 01:36:43;;;;;;;8.90;6.47;;;12.20;99.90;;;;;;5092189;28;20383;-86
2021/10/19 01:39:09;;;;;;;7.30;5.18;;;12.20;99.90;;;;;;5091877;28;20043;-87
2021/10/19 01:41:35;;;;;;;8.23;5.65;;;12.20;99.90;;;;;;5092152;28;20123;-87
2021/10/19 01:44:01;;;;;;;8.73;5.28;;;12.10;99.90;;;;;;5092315;28;20032;-87
2021/10/19 01:46:26;;;;;;;7.97;5.40;;;12.10;99.90;;;;;;5091647;23;20056;-86
2021/10/19 01:48:52;;;;;;;10.10;6.53;;;12.10;99.90;;;;;;5085330;28;20032;-85
2021/10/19 01:51:18;;;;;;;10.10;6.30;;;12.10;99.90;;;;;;5088605;28;20028;-85
2021/10/19 01:53:45;;;;;;;10.13;6.60;;;12.10;99.90;;;;;;5071895;28;20036;-85
2021/10/19 01:56:11;;;;;;;9.80;6.25;;;12.10;99.90;;;;;;5085417;28;20032;-86
2021/10/19 01:58:37;;;;;;;8.88;5.70;;;12.20;99.90;;;;;;5068398;28;20053;-86
2021/10/19 02:01:04;;;;;;;10.77;6.28;;;12.10;99.90;;;;;;5068548;28;20048;-86
2021/10/19 02:03:36;;;;;;;8.77;6.50;;;12.20;99.90;;;;;;5068424;28;20037;-86
2021/10/19 02:06:02;;;;;;;9.90;6.40;;;12.20;99.90;;;;;;5068683;28;20047;-86
2021/10/19 02:08:27;;;;;;;9.40;6.22;;;12.20;99.90;;;;;;5068245;28;20086;-86
2021/10/19 02:10:53;;;;;;;9.68;6.13;;;12.20;99.90;;;;;;5068592;28;20029;-87
2021/10/19 02:13:19;;;;;;;7.95;5.63;;;12.20;99.90;;;;;;5084978;28;20056;-85
2021/10/19 02:15:45;;;;;;;9.57;5.95;;;12.20;99.90;;;;;;5068453;28;20035;-85
2021/10/19 02:18:10;;;;;;;11.13;7.00;;;12.30;99.90;;;;;;5068104;28;20043;-85
2021/10/19 02:20:38;;;;;;;11.65;7.40;;;12.20;99.90;;;;;;5070507;28;20066;-86
2021/10/19 02:23:04;;;;;;;12.75;7.53;;;12.30;99.90;;;;;;5074784;28;20040;-86
2021/10/19 02:25:29;;;;;;;11.82;7.55;;;12.30;99.90;;;;;;5091583;28;20029;-86
2021/10/19 02:27:55;;;;;;;10.80;7.53;;;12.30;99.90;;;;;;5091475;28;20056;-86
2021/10/19 02:30:22;;;;;;;10.13;6.75;;;12.30;99.90;;;;;;5074898;28;20033;-85
2021/10/19 02:32:48;;;;;;;12.93;7.07;;;12.30;99.90;;;;;;5091494;28;20056;-86
2021/10/19 02:35:16;;;;;;;10.75;6.97;;;12.30;99.90;;;;;;5074747;28;20369;-88
2021/10/19 02:37:44;;;;;;;10.90;7.40;;;12.30;99.90;;;;;;5074448;28;20040;-87
2021/10/19 02:40:12;;;;;;;11.68;7.85;;;12.30;99.90;;;;;;5074786;28;20052;-86
2021/10/19 02:42:38;;;;;;;9.25;6.38;;;12.30;99.90;;;;;;5091472;28;20039;-86
2021/10/19 02:45:05;;;;;;;9.10;6.50;;;12.30;99.90;;;;;;5074491;28;20115;-87
2021/10/19 02:47:31;;;;;;;10.27;7.22;;;12.30;99.90;;;;;;5104714;28;20147;-87
2021/10/19 02:49:57;;;;;;;11.40;6.60;;;12.40;99.90;;;;;;5115266;28;20028;-87
2021/10/19 02:52:22;;;;;;;10.43;6.57;;;12.40;99.90;;;;;;5132232;28;20030;-87
2021/10/19 02:54:51;;;;;;;9.65;6.85;;;12.40;99.90;;;;;;5109157;28;20088;-86
2021/10/19 02:57:21;;;;;;;8.70;6.72;;;12.40;99.90;;;;;;5114903;28;20038;-87
2021/10/19 02:59:47;;;;;;;9.88;7.00;;;12.40;99.90;;;;;;5115226;28;20184;-87
2021/10/19 03:02:13;;;;;;;8.73;6.70;;;12.50;99.90;;;;;;5132475;28;20046;-87
2021/10/19 03:04:39;;;;;;;8.90;6.45;;;12.50;99.90;;;;;;5132309;28;20039;-86
2021/10/19 03:07:05;;;;;;;9.10;6.03;;;12.50;99.90;;;;;;5115119;28;20023;-87
2021/10/19 03:09:31;;;;;;;10.48;5.40;;;12.60;99.90;;;;;;5115016;28;20028;-88
2021/10/19 03:11:57;;;;;;;6.38;4.65;;;12.60;99.90;;;;;;5114963;28;20056;-87
2021/10/19 03:14:22;;;;;;;8.00;5.57;;;12.70;99.90;;;;;;5131969;28;20027;-88
2021/10/19 03:16:48;;;;;;;6.53;4.85;;;12.80;99.90;;;;;;5115127;28;20031;-88
2021/10/19 03:19:14;;;;;;;7.38;4.80;;;12.90;99.90;;;;;;5131563;28;20035;-87
2021/10/19 03:21:40;;;;;;;6.78;5.10;;;12.90;99.90;;;;;;5131866;28;20034;-86
2021/10/19 03:24:06;;;;;;;5.25;4.03;;;12.90;99.90;;;;;;5114847;28;20463;-86
2021/10/19 03:26:32;;;;;;;7.55;4.80;;;13.00;99.90;;;;;;5132240;28;20073;-88
2021/10/19 03:28:57;;;;;;;5.88;3.60;;;13.00;99.90;;;;;;5114882;28;20020;-86
2021/10/19 03:31:23;;;;;;;7.45;4.30;;;13.00;99.90;;;;;;5132242;28;20457;-87
2021/10/19 03:33:49;;;;;;;6.18;4.30;;;13.00;99.90;;;;;;5111355;28;20023;-87
2021/10/19 03:36:15;;;;;;;5.97;4.35;;;13.00;99.90;;;;;;5112933;28;20425;-88
2021/10/19 03:38:40;;;;;;;6.88;4.18;;;13.00;99.90;;;;;;5129829;28;20043;-86
2021/10/19 03:41:07;;;;;;;7.63;5.70;;;13.00;99.90;;;;;;5111275;28;20023;-86
2021/10/19 03:43:33;;;;;;;8.30;6.35;;;13.00;99.90;;;;;;5111344;28;20061;-87
2021/10/19 03:45:58;;;;;;;6.97;5.35;;;13.00;99.90;;;;;;5112622;22;20048;-86
2021/10/19 03:48:24;;;;;;;6.60;5.55;;;13.10;99.90;;;;;;5090863;28;20077;-87
2021/10/19 03:50:50;;;;;;;7.95;4.75;;;13.10;99.90;;;;;;5090873;28;20028;-85
2021/10/19 03:53:16;;;;;;;6.60;4.63;;;13.10;99.90;;;;;;5090941;28;20042;-84
2021/10/19 03:55:43;;;;;;;6.97;5.60;;;13.10;99.90;;;;;;5096549;28;20119;-85
2021/10/19 03:58:10;;;;;;;7.63;5.53;;;13.10;99.90;;;;;;5073999;28;20126;-87
2021/10/19 04:00:36;;;;;;;6.35;4.88;;;13.10;99.90;;;;;;5090936;28;20032;-85
2021/10/19 04:03:01;;;;;;;5.95;4.50;;;13.00;99.90;;;;;;5074062;28;20126;-87
2021/10/19 04:05:27;;;;;;;9.88;5.80;;;13.00;99.90;;;;;;5090805;28;20028;-86
2021/10/19 04:07:53;;;;;;;8.88;5.47;;;13.10;99.90;;;;;;5074165;28;20055;-85
2021/10/19 04:10:21;;;;;;;8.50;5.70;;;13.10;99.90;;;;;;5090576;28;20028;-88
2021/10/19 04:12:47;;;;;;;9.15;5.50;;;13.10;99.90;;;;;;5090813;28;20071;-88
2021/10/19 04:15:13;;;;;;;7.97;5.88;;;13.10;99.90;;;;;;5090725;28;20039;-86
2021/10/19 04:17:38;;;;;;;8.20;5.85;;;13.10;99.90;;;;;;5073586;28;20032;-89
2021/10/19 04:20:05;;;;;;;8.30;5.65;;;13.10;99.90;;;;;;5107355;28;20173;-86
2021/10/19 04:22:31;;;;;;;7.05;5.50;;;13.20;99.90;;;;;;5073502;28;20028;-89
2021/10/19 04:24:58;;;;;;;6.95;4.45;;;13.20;99.90;;;;;;5073607;28;20031;-87
2021/10/19 04:27:25;;;;;;;5.88;4.63;;;13.20;99.90;;;;;;5108134;28;20043;-89
2021/10/19 04:29:51;;;;;;;7.90;5.32;;;13.20;99.90;;;;;;5107073;28;20110;-88
2021/10/19 04:32:17;;;;;;;8.50;4.88;;;13.20;99.90;;;;;;5073202;28;20038;-88
2021/10/19 04:34:43;;;;;;;7.95;5.05;;;13.20;99.90;;;;;;5090070;28;20052;-88
2021/10/19 04:37:08;;;;;;;9.20;5.68;;;13.20;99.90;;;;;;5072662;28;20371;-88
2021/10/19 04:39:35;;;;;;;6.32;4.05;;;13.30;99.90;;;;;;5073150;28;20056;-87
2021/10/19 04:42:03;;;;;;;5.82;4.60;;;13.30;99.90;;;;;;5073442;28;20154;-86
2021/10/19 04:44:28;;;;;;;5.57;4.40;;;13.20;99.90;;;;;;5071689;28;20119;-86
2021/10/19 04:46:55;;;;;;;5.55;4.85;;;13.30;99.90;;;;;;5061131;28;20075;-88
2021/10/19 04:49:21;;;;;;;6.30;4.05;;;13.30;99.90;;;;;;5070167;28;20035;-87
2021/10/19 04:51:46;;;;;;;7.88;5.60;;;13.30;99.90;;;;;;5069703;28;20403;-87
2021/10/19 04:54:12;;;;;;;7.03;5.10;;;13.30;99.90;;;;;;5085521;28;20032;-88
2021/10/19 04:56:39;;;;;;;6.70;4.60;;;13.40;99.90;;;;;;5052641;28;20067;-88
2021/10/19 04:59:05;;;;;;;8.60;4.90;;;13.40;99.90;;;;;;5052920;28;20048;-88
2021/10/19 05:01:30;;;;;;;7.90;5.07;;;13.40;99.90;;;;;;5069630;28;20035;-88
2021/10/19 05:03:56;;;;;;;6.72;5.13;;;13.40;99.90;;;;;;5053039;28;20369;-87
2021/10/19 05:06:22;;;;;;;8.20;5.28;;;13.40;99.90;;;;;;5052971;28;20028;-87
2021/10/19 05:08:48;;;;;;;6.43;4.93;;;13.40;99.90;;;;;;5053035;28;20032;-86
2021/10/19 05:11:13;;;;;;;11.80;7.65;;;13.40;99.90;;;;;;5052381;28;20035;-87
2021/10/19 05:13:39;;;;;;;9.82;7.00;;;13.50;99.90;;;;;;5052697;28;20062;-88
2021/10/19 05:16:05;;;;;;;8.02;5.13;;;13.50;99.90;;;;;;5052632;28;20065;-89
2021/10/19 05:18:31;;;;;;;9.52;5.80;;;13.50;99.90;;;;;;5051950;28;20037;-87
2021/10/19 05:20:57;;;;;;;6.53;5.50;;;13.50;99.90;;;;;;5052101;28;20449;-87
2021/10/19 05:23:22;;;;;;;7.25;5.65;;;13.50;99.90;;;;;;5052439;28;20028;-86
2021/10/19 05:25:48;;;;;;;6.07;4.25;;;13.40;99.90;;;;;;5052318;28;20079;-88
2021/10/19 05:28:14;;;;;;;7.57;5.60;;;13.50;99.90;;;;;;5052195;28;20036;-88
2021/10/19 05:30:40;;;;;;;8.20;6.40;;;13.50;99.90;;;;;;5052342;28;20033;-87
2021/10/19 05:33:08;;;;;;;6.90;5.88;;;13.60;99.90;;;;;;5051929;28;20032;-88
2021/10/19 05:35:34;;;;;;;7.53;5.80;;;13.50;99.90;;;;;;5052289;28;20028;-88
2021/10/19 05:38:00;;;;;;;8.00;5.05;;;13.60;99.90;;;;;;5052544;28;20045;-86
2021/10/19 05:40:26;;;;;;;6.82;5.28;;;13.50;99.90;;;;;;5051972;28;20043;-88
2021/10/19 05:42:52;;;;;;;6.45;4.82;;;13.50;99.90;;;;;;5052036;28;20035;-87
2021/10/19 05:48:14;;;;;;;5.80;4.40;;;13.50;99.90;;;;;;4947643;29;20054;-86
2021/10/19 05:50:41;;;;;;;8.13;4.45;;;13.60;99.90;;;;;;4947907;29;20035;-86
2021/10/19 05:53:06;;;;;;;6.40;4.18;;;13.60;99.90;;;;;;4947783;29;20028;-86
2021/10/19 05:55:32;;;;;;;5.35;4.55;;;13.60;99.90;;;;;;4953201;28;20070;-86
2021/10/19 05:57:58;;;;;;;5.45;4.40;;;13.60;99.90;;;;;;4947613;29;20039;-86
2021/10/19 06:00:24;;;;;;;5.35;3.83;;;13.60;99.90;;;;;;4948075;29;20046;-87
2021/10/19 06:02:49;;;;;;;6.57;4.47;;;13.60;99.90;;;;;;4947755;29;20057;-86
2021/10/19 06:05:15;;;;;;;5.40;4.00;;;13.70;99.90;;;;;;4947971;29;20039;-86
2021/10/19 06:07:40;;;;;;;4.57;3.78;;;13.70;99.90;;;;;;4963588;29;20031;-85
2021/10/19 06:10:07;;;;;;;4.97;4.32;;;13.70;99.90;;;;;;4931844;29;20211;-86
2021/10/19 06:12:32;;;;;;;5.35;3.60;;;13.70;99.90;;;;;;4947830;29;20028;-86
2021/10/19 06:14:58;;;;;;;4.20;3.22;;;13.70;99.90;;;;;;4947790;29;20506;-84
2021/10/19 06:17:25;;;;;;;4.93;3.55;;;13.70;99.90;;;;;;4947377;29;20035;-87
2021/10/19 06:19:50;;;;;;;4.53;3.25;;;13.70;99.90;;;;;;4947822;29;20070;-86
2021/10/19 06:22:16;;;;;;;4.28;3.88;;;13.80;99.90;;;;;;4947397;29;20034;-87
2021/10/19 06:27:35;;;;;;;4.57;2.97;;;13.80;99.90;;;;;;5063849;28;20087;-87
2021/10/19 06:30:03;;;;;;;3.80;2.30;;;13.70;99.90;;;;;;5047999;28;20025;-86
2021/10/19 06:32:28;;;;;;;3.03;2.47;;;13.80;99.90;;;;;;5047962;28;20183;-85
2021/10/19 06:34:54;;;;;;;3.28;2.40;;;13.80;99.90;;;;;;5031486;28;20044;-87
2021/10/19 06:37:20;;;;;;;3.42;2.63;;;13.80;99.90;;;;;;5047667;28;20021;-87
2021/10/19 06:39:45;;;;;;;5.22;3.42;;;13.80;99.90;;;;;;5064489;28;20044;-86
2021/10/19 06:42:11;;;;;;;4.28;3.10;;;13.80;99.90;;;;;;5047858;28;20029;-85
2021/10/19 06:44:37;;;;;;;3.13;2.65;;;13.80;99.90;;;;;;5047614;28;20120;-87
2021/10/19 06:47:03;;;;;;;5.70;3.70;;;13.90;99.90;;;;;;5047381;28;20025;-86
2021/10/19 06:49:28;;;;;;;4.07;3.42;;;13.90;99.90;;;;;;5046985;28;20033;-86
2021/10/19 06:51:54;;;;;;;4.22;2.97;;;13.90;99.90;;;;;;5047134;28;20368;-87
2021/10/19 06:54:20;;;;;;;3.33;2.15;;;13.90;99.90;;;;;;5033658;28;20037;-87
2021/10/19 06:56:45;;;;;;;3.30;2.58;;;13.90;99.90;;;;;;5046928;28;20059;-87
2021/10/19 06:59:11;;;;;;;3.35;2.22;;;13.90;99.90;;;;;;5030942;28;20033;-88
2021/10/19 07:01:37;;;;;;;4.15;3.53;;;14.00;99.90;;;;;;5030701;28;20040;-88
2021/10/19 07:04:02;;;;;;;4.18;3.08;;;14.00;99.90;;;;;;5047208;28;20064;-88
2021/10/19 07:06:30;;;;;;;3.92;2.97;;;14.00;99.90;;;;;;5030810;28;20080;-86
2021/10/19 07:08:56;;;;;;;2.40;1.38;;;14.00;99.90;;;;;;5050200;28;20489;-88
2021/10/19 07:11:25;;;;;;;3.70;2.20;;;14.00;99.90;;;;;;5051471;28;20052;-87
2021/10/19 07:13:52;;;;;;;3.28;2.20;;;14.10;99.90;;;;;;5034807;28;20430;-87
2021/10/19 07:16:18;;;;;;;2.90;1.98;;;14.00;99.90;;;;;;5034648;28;20260;-87
2021/10/19 07:18:43;;;;;;;2.75;1.80;;;14.00;99.90;;;;;;5050936;28;20357;-88
2021/10/19 07:21:09;;;;;;;3.08;2.40;;;14.10;99.90;;;;;;5051177;28;20402;-87
2021/10/19 07:23:35;;;;;;;3.65;2.58;;;14.10;99.90;;;;;;5050956;28;20040;-88
2021/10/19 07:26:00;;;;;;;2.55;1.63;;;14.10;99.90;;;;;;5034174;28;20072;-88
2021/10/19 07:28:26;;;;;;;2.30;1.70;;;14.10;99.90;;;;;;5034174;28;20053;-89
2021/10/19 07:30:52;;;;;;;2.80;2.08;;;14.10;99.90;;;;;;5050935;28;20037;-88
2021/10/19 07:33:18;;;;;;;2.63;1.83;;;14.10;99.90;;;;;;5035762;28;20055;-87
2021/10/19 07:35:44;;;;;;;2.67;2.08;;;14.20;99.90;;;;;;5034450;28;20092;-87
2021/10/19 07:38:11;;;;;;;2.45;1.63;;;14.20;99.90;;;;;;5034459;28;20032;-88
2021/10/19 07:40:37;;;;;;;2.83;1.73;;;14.20;99.90;;;;;;5050658;28;20039;-88
2021/10/19 07:43:03;;;;;;;4.47;2.17;;;14.20;99.90;;;;;;5050701;28;20033;-88
2021/10/19 07:45:29;;;;;;;2.00;1.30;;;14.20;99.90;;;;;;5033807;28;20037;-88
2021/10/19 07:47:59;;;;;;;2.78;1.90;;;14.30;99.90;;;;;;5033844;28;20035;-88
2021/10/19 07:50:29;;;;;;;3.65;2.25;;;14.30;99.90;;;;;;5033876;28;20115;-87
2021/10/19 07:52:55;;;;;;;2.75;2.35;;;14.30;99.90;;;;;;5033627;28;20477;-88
2021/10/19 07:55:22;;;;;;;2.75;2.13;;;14.30;99.90;;;;;;5033475;28;20460;-87
2021/10/19 07:57:49;;;;;;;2.42;1.75;;;14.40;99.90;;;;;;5066616;28;20453;-87
2021/10/19 08:00:17;;;;;;;2.17;1.40;;;14.40;99.90;;;;;;5068069;28;20029;-87
2021/10/19 08:02:43;;;;;;;2.60;2.25;;;14.50;99.90;;;;;;5066672;28;20155;-87
2021/10/19 08:05:13;;;;;;;2.63;1.83;;;14.50;99.90;;;;;;5067801;28;20029;-87
2021/10/19 08:07:39;;;;;;;;;;;14.50;99.90;;;;;;5066857;28;20025;-88
2021/10/19 08:10:05;;;;;;;3.63;2.50;;;14.50;99.90;;;;;;5049588;28;19916;-87
2021/10/19 08:12:31;;;;;;;1.55;1.00;;;14.50;99.90;;;;;;5066425;28;20037;-89
2021/10/19 08:15:00;;;;;;;3.50;2.42;;;14.50;99.90;;;;;;5066186;28;20029;-88
2021/10/19 08:17:26;;;;;;;2.53;2.00;;;14.50;99.90;;;;;;5066125;28;20040;-87
2021/10/19 08:19:53;;;;;;;3.33;1.90;;;14.60;99.90;;;;;;5065854;28;20036;-86
2021/10/19 08:22:19;;;;;;;2.95;2.17;;;14.60;99.90;;;;;;5066076;28;20048;-86
2021/10/19 08:24:44;;;;;;;3.00;2.17;;;14.60;99.90;;;;;;5066034;28;20033;-87
2021/10/19 08:27:10;;;;;;;2.30;1.77;;;14.70;99.90;;;;;;5066041;28;20056;-87
2021/10/19 08:29:36;;;;;;;3.38;2.58;;;14.70;99.90;;;;;;5066209;28;20040;-88
2021/10/19 08:32:01;;;;;;;3.10;2.78;;;14.70;99.90;;;;;;5066018;28;20068;-88
2021/10/19 08:34:27;;;;;;;3.38;2.83;;;14.70;99.90;;;;;;5066216;28;20097;-89
2021/10/19 08:36:52;;;;;;;3.38;2.38;;;14.70;99.90;;;;;;5066261;28;20059;-89
2021/10/19 08:39:18;;;;;;;2.88;2.38;;;14.70;99.90;;;;;;5065938;28;20055;-89
2021/10/19 08:41:44;;;;;;;2.05;1.55;;;14.70;99.90;;;;;;5065970;28;20029;-89
2021/10/19 08:44:10;;;;;;;3.15;2.78;;;14.80;99.90;;;;;;5066100;28;20027;-88
2021/10/19 08:46:35;;;;;;;3.67;2.47;;;14.90;99.90;;;;;;5065868;28;20029;-88
2021/10/19 08:49:01;;;;;;;2.55;2.22;;;14.90;99.90;;;;;;5065816;28;20063;-88
2021/10/19 08:51:27;;;;;;;3.38;2.70;;;14.90;99.90;;;;;;5065583;28;20025;-89
2021/10/19 08:53:52;;;;;;;3.63;2.88;;;15.00;99.90;;;;;;5065645;28;20060;-89
2021/10/19 08:56:18;;;;;;;2.53;2.25;;;15.00;99.90;;;;;;5032278;28;20032;-89
2021/10/19 08:58:44;;;;;;;3.05;2.47;;;15.00;99.90;;;;;;5065581;28;20043;-89
2021/10/19 09:01:10;;;;;;;2.53;1.92;;;15.10;99.90;;;;;;5065760;28;20424;-88
2021/10/19 09:03:47;;;;;;;3.63;2.40;;;15.10;99.90;;;;;;5065220;28;20033;-89
2021/10/19 09:06:13;;;;;;;3.55;3.25;;;15.10;99.90;;;;;;5065003;28;20033;-88
2021/10/19 09:08:44;;;;;;;3.15;2.75;;;15.20;99.90;;;;;;5064999;28;20060;-89
2021/10/19 09:11:14;;;;;;;2.33;1.63;;;15.20;99.90;;;;;;5065182;28;20029;-89
2021/10/19 09:13:51;;;;;;;2.92;2.22;;;15.20;99.90;;;;;;5048446;28;20032;-89
2021/10/19 09:16:17;;;;;;;2.72;1.88;;;15.30;99.90;;;;;;5065092;28;20044;-89
2021/10/19 09:18:42;;;;;;;2.30;2.08;;;15.20;99.90;;;;;;5064864;28;20045;-90
2021/10/19 09:21:08;;;;;;;2.28;2.05;;;15.30;99.90;;;;;;5064855;28;20040;-89
2021/10/19 09:23:34;;;;;;;2.63;2.15;;;15.30;99.90;;;;;;5065237;28;20095;-89
2021/10/19 09:26:01;;;;;;;3.03;2.50;;;15.30;99.90;;;;;;5064570;28;20051;-89
2021/10/19 09:28:38;;;;;;;3.17;2.75;;;15.30;99.90;;;;;;5064948;28;20033;-89
2021/10/19 09:31:05;;;;;;;2.83;2.35;;;15.40;99.90;;;;;;5047669;28;20526;-90
2021/10/19 09:33:31;;;;;;;2.53;2.08;;;15.40;99.90;;;;;;5064956;28;20037;-91
2021/10/19 09:36:00;;;;;;;3.80;2.67;;;15.40;99.90;;;;;;5064857;28;20056;-90
2021/10/19 09:38:27;;;;;;;4.80;4.40;;;15.50;99.90;;;;;;5064703;28;20045;-90
2021/10/19 09:40:56;;;;;;;4.25;3.85;;;15.50;99.90;;;;;;5064611;28;20032;-92
2021/10/19 09:43:27;;;;;;;3.92;3.63;;;15.50;99.90;;;;;;5064478;28;20032;-90
2021/10/19 09:45:56;;;;;;;2.72;2.40;;;15.60;99.90;;;;;;5064588;28;20481;-90
2021/10/19 09:48:31;;;;;;;2.90;2.53;;;15.60;99.90;;;;;;5048238;28;20028;-90
2021/10/19 09:50:58;;;;;;;3.03;2.05;;;15.60;99.90;;;;;;5064502;28;20044;-89
2021/10/19 09:53:25;;;;;;;3.25;2.10;;;15.60;99.90;;;;;;5047944;28;20035;-89
2021/10/19 09:55:54;;;;;;;1.75;1.00;;;15.60;99.90;;;;;;5049906;28;20029;-89
2021/10/19 09:58:21;;;;;;;2.05;0.95;;;15.70;99.90;;;;;;5048131;28;20037;-89
2021/10/19 10:00:48;;;;;;;1.60;1.15;;;15.70;99.90;;;;;;5047838;28;20056;-89
2021/10/19 10:03:14;;;;;;;2.92;1.63;;;15.80;99.90;;;;;;5045840;28;20148;-87
2021/10/19 10:05:41;;;;;;;1.40;1.00;;;15.70;99.90;;;;;;5047657;28;20029;-89
2021/10/19 10:08:11;;;;;;;1.83;1.30;;;15.80;99.90;;;;;;5030993;28;20021;-89
2021/10/19 10:10:37;;;;;;;1.65;1.08;;;15.80;99.90;;;;;;5031089;28;20060;-89
2021/10/19 10:13:04;;;;;;;1.35;1.10;;;15.90;99.90;;;;;;5031068;28;20037;-89
2021/10/19 10:15:33;;;;;;;1.17;0.80;;;15.90;99.90;;;;;;5031166;28;20029;-90
2021/10/19 10:18:32;;;;;;;1.75;0.80;;;15.90;99.90;;;;;;5030978;28;20047;-90
2021/10/19 10:20:58;;;;;;;2.05;0.70;;;16.00;99.90;;;;;;5047613;28;20037;-89
2021/10/19 10:23:26;;;;;;;2.25;0.80;;;16.00;99.90;;;;;;5031113;28;20033;-90
2021/10/19 10:25:58;;;;;;;2.28;0.70;;;16.00;99.90;;;;;;5030782;28;20076;-90
2021/10/19 10:28:27;;;;;;;2.72;0.70;;;16.00;99.90;;;;;;5063617;28;20033;-90
2021/10/19 10:30:55;;;;;;;2.33;0.60;;;16.00;99.90;;;;;;5030843;28;20036;-88
2021/10/19 10:33:32;;;;;;;1.10;0.50;;;16.00;99.90;;;;;;5031592;28;20037;-88
2021/10/19 10:36:02;;;;;;;1.20;0.50;;;16.00;99.90;;;;;;5031841;28;20035;-88
2021/10/19 10:38:28;;;;;;;;;;;16.10;99.90;;;;;;5031420;28;20045;-90
2021/10/19 10:40:57;;;;;;;1.70;0.80;;;16.10;99.90;;;;;;5030706;28;19916;-91
2021/10/19 10:43:27;;;;;;;2.15;0.50;;;16.10;99.90;;;;;;5034656;28;20128;-89
2021/10/19 10:46:04;;;;;;;1.27;0.60;;;16.10;99.90;;;;;;5034810;28;20039;-88
2021/10/19 10:48:30;;;;;;;1.40;0.68;;;16.10;99.90;;;;;;5034343;28;20036;-88
2021/10/19 10:50:56;;;;;;;1.50;0.60;;;16.20;99.90;;;;;;5051109;28;20029;-89
2021/10/19 10:53:22;;;;;;;2.92;0.90;;;16.20;99.90;;;;;;5034557;28;20043;-88
2021/10/19 10:55:51;;;;;;;1.60;0.70;;;16.20;99.90;;;;;;5045357;28;20440;-88
2021/10/19 10:58:32;;;;;;;2.05;1.00;;;16.30;99.90;;;;;;5067557;28;20044;-88
2021/10/19 11:01:00;;;;;;;1.73;1.00;;;16.40;99.90;;;;;;5067472;28;20033;-88
2021/10/19 11:03:26;;;;;;;3.25;1.92;;;16.40;99.90;;;;;;5067345;28;20029;-89
2021/10/19 11:05:59;;;;;;;2.70;2.20;;;16.40;99.90;;;;;;5051002;28;20044;-88
2021/10/19 11:08:28;;;;;;;3.67;2.88;;;16.50;99.90;;;;;;5050736;28;20025;-87
2021/10/19 11:11:18;;;;;;;4.00;2.63;;;16.50;99.90;;;;;;5050556;28;20029;-88
2021/10/19 11:13:58;;;;;;;2.83;2.25;;;16.50;99.90;;;;;;5049953;28;20025;-88
2021/10/19 11:16:29;;;;;;;3.08;2.03;;;16.50;99.90;;;;;;5067294;28;20033;-89
2021/10/19 11:18:55;;;;;;;2.75;2.20;;;16.50;99.90;;;;;;5066944;28;20056;-90
2021/10/19 11:21:21;;;;;;;2.78;2.40;;;16.60;99.90;;;;;;5049896;28;20025;-89
2021/10/19 11:23:48;;;;;;;3.05;2.55;;;16.50;99.90;;;;;;5050367;28;20029;-89
2021/10/19 11:26:14;;;;;;;4.00;2.72;;;16.60;99.90;;;;;;5050382;28;20049;-89
2021/10/19 11:28:42;;;;;;;2.97;2.40;;;16.60;99.90;;;;;;5050187;28;20036;-90
2021/10/19 11:31:08;;;;;;;3.85;2.78;;;16.60;99.90;;;;;;5050577;28;20033;-89
2021/10/19 11:33:39;;;;;;;3.15;2.22;;;16.70;99.90;;;;;;5033854;28;20064;-89
2021/10/19 11:36:06;;;;;;;3.47;3.17;;;16.70;99.90;;;;;;5033518;28;20029;-89
2021/10/19 11:38:39;;;;;;;3.70;3.08;;;16.80;99.90;;;;;;5033325;28;20041;-89
2021/10/19 11:41:10;;;;;;;5.30;4.30;;;16.90;99.90;;;;;;5050326;28;20033;-89
2021/10/19 11:43:47;;;;;;;4.35;3.75;;;16.90;99.90;;;;;;5033578;28;20029;-89
2021/10/19 11:46:17;;;;;;;4.38;3.30;;;17.00;99.90;;;;;;5033911;28;20033;-90
2021/10/19 11:48:43;;;;;;;3.67;3.25;;;16.90;99.90;;;;;;5050229;28;20033;-89
2021/10/19 11:51:15;;;;;;;5.00;4.50;;;16.90;99.90;;;;;;5050262;28;20029;-89
2021/10/19 11:53:42;;;;;;;5.68;3.95;;;16.90;99.90;;;;;;5049391;28;20039;-90
2021/10/19 11:56:10;;;;;;;7.13;5.15;;;16.90;99.90;;;;;;5050216;28;20029;-89
2021/10/19 11:59:02;;;;;;;5.13;3.72;;;16.90;99.90;;;;;;5033269;28;20048;-89
2021/10/19 12:01:35;;;;;;;5.70;4.85;;;16.90;99.90;;;;;;5033893;28;20033;-89
2021/10/19 12:04:04;;;;;;;5.15;4.25;;;17.00;99.90;;;;;;5050372;28;20063;-90
2021/10/19 12:06:31;;;;;;;7.95;5.68;;;17.00;99.90;;;;;;5033572;28;20033;-90
2021/10/19 12:09:21;;;;;;;5.35;4.82;;;17.00;99.90;;;;;;5033436;28;20033;-89
2021/10/19 12:11:57;;;;;;;6.20;4.57;;;17.10;99.90;;;;;;5033106;28;20045;-88
2021/10/19 12:14:31;;;;;;;9.65;6.50;;;17.10;99.90;;;;;;5033181;28;20041;-90
2021/10/19 12:17:00;;;;;;;8.75;6.10;;;17.10;99.90;;;;;;5033166;28;20095;-89
2021/10/19 12:19:27;;;;;;;6.22;5.30;;;17.10;99.90;;;;;;5049748;28;20045;-89
2021/10/19 12:22:03;;;;;;;8.88;6.20;;;17.20;99.90;;;;;;5033249;28;20037;-88
2021/10/19 12:24:34;;;;;;;7.80;4.93;;;17.20;99.90;;;;;;5050579;28;20043;-89
2021/10/19 12:27:15;;;;;;;5.57;4.97;;;17.20;99.90;;;;;;5049511;28;20088;-89
2021/10/19 12:29:40;;;;;;;6.63;4.95;;;17.30;99.90;;;;;;5032989;28;20029;-89
2021/10/19 12:32:07;;;;;;;8.80;6.25;;;17.30;99.90;;;;;;5032819;28;20037;-89
2021/10/19 12:34:34;;;;;;;7.63;5.68;;;17.30;99.90;;;;;;5032945;28;20086;-88
2021/10/19 12:37:03;;;;;;;6.93;6.22;;;17.30;99.90;;;;;;5032522;28;20043;-88
2021/10/19 12:39:30;;;;;;;6.20;4.97;;;17.30;99.90;;;;;;5032623;28;20041;-87
2021/10/19 12:41:56;;;;;;;5.70;4.80;;;17.30;99.90;;;;;;5032701;28;20033;-89
2021/10/19 12:44:22;;;;;;;7.90;5.30;;;17.20;99.90;;;;;;5032483;28;20096;-88
2021/10/19 12:46:49;;;;;;;6.13;5.15;;;17.20;99.90;;;;;;5032495;28;20059;-89
2021/10/19 12:49:15;;;;;;;6.05;4.30;;;17.20;99.90;;;;;;5032492;28;20033;-89
2021/10/19 12:51:41;;;;;;;6.35;4.70;;;17.20;99.90;;;;;;5066850;28;20161;-89